Moon Township, Pennsylvania
Current Conditions -  °F | °C
As of 11:51 AM on Friday 28 Nov 2014 (Local Time) from KPIT Reporting Station
Broken Clouds Broken Clouds  
Wind Chill: 16°   Ceiling: 3300
Heat Index: 27°   Visibility: 10mi
Dew Point: 16°   Wind: 13mph
Humidity: 63%   Direction: 320°NW
Pressure: 30.3"   Gusts: NA
Location:  40.5042°N, 80.1934°W
Report Text: KPIT 281651Z 32011KT 10SM BKN033 M03/M09 A3030 RMK AO2 SLP284 T10281089
Loading
Personal Weather Stations






























Interactive Weather Map New forecast layout! Learn more

10-Day Weather Forecast

Advertisements
Track Severe Weather on mobile